Time;durP1;ratioP1;P1;durP2;ratioP2;P2;SDS_P1;SDS_P2;PMS_P1;PMS_P2;Temp;Humidity;BMP_temperature;BMP_pressure;BME280_temperature;BME280_humidity;BME280_pressure;Samples;Min_cycle;Max_cycle;Signal;HPM_P1;HPM_P2
2021/08/06 00:00:14;;;;;;;4.20;2.80;;;;;;;17.13;80.72;99712.19;693454;28;1054;-54
2021/08/06 00:00:34;;;;;;;4.40;3.10;;;;;;;17.13;80.92;99714.84;692291;28;1198;-56
2021/08/06 00:00:55;;;;;;;4.63;3.20;;;;;;;17.09;81.40;99714.09;691064;28;4373;-54
2021/08/06 00:01:17;;;;;;;4.80;3.10;;;;;;;17.07;80.86;99712.47;691062;28;1185;-56
2021/08/06 00:01:37;;;;;;;4.90;3.00;;;;;;;17.05;81.43;99716.97;690939;28;1401;-55
2021/08/06 00:01:58;;;;;;;4.37;3.10;;;;;;;17.04;81.33;99709.97;691792;28;1302;-55
2021/08/06 00:02:18;;;;;;;4.33;3.13;;;;;;;17.04;80.87;99715.25;692187;28;1308;-54
2021/08/06 00:02:41;;;;;;;4.28;3.17;;;;;;;17.01;81.54;99714.44;694013;28;1370;-56
2021/08/06 00:03:02;;;;;;;4.10;2.95;;;;;;;17.00;81.09;99718.03;693608;28;1133;-56
2021/08/06 00:03:22;;;;;;;4.83;2.97;;;;;;;16.99;81.70;99716.31;693914;28;1298;-57
2021/08/06 00:03:43;;;;;;;4.63;3.20;;;;;;;16.98;81.11;99711.13;690009;28;4352;-54
2021/08/06 00:04:03;;;;;;;4.20;3.20;;;;;;;16.98;80.94;99711.13;690769;28;1351;-53
2021/08/06 00:04:23;;;;;;;4.90;3.10;;;;;;;16.97;81.55;99720.81;691176;28;1339;-52
2021/08/06 00:04:44;;;;;;;5.30;3.20;;;;;;;17.02;82.10;99716.16;690623;28;1287;-53
2021/08/06 00:05:05;;;;;;;5.03;3.07;;;;;;;17.13;81.29;99714.84;691262;28;1354;-54
2021/08/06 00:05:26;;;;;;;5.20;3.22;;;;;;;17.18;81.26;99716.31;690494;28;3702;-54
2021/08/06 00:05:47;;;;;;;4.57;3.20;;;;;;;17.29;80.01;99715.81;693453;28;1369;-56
2021/08/06 00:06:08;;;;;;;4.37;3.00;;;;;;;17.26;79.73;99710.66;694077;28;1396;-54
2021/08/06 00:06:28;;;;;;;4.75;3.15;;;;;;;17.24;80.23;99720.47;691986;28;1190;-52
2021/08/06 00:06:49;;;;;;;5.13;3.10;;;;;;;17.21;80.63;99717.97;692412;28;4355;-54
2021/08/06 00:07:09;;;;;;;5.05;3.00;;;;;;;17.27;80.79;99717.66;691597;28;1334;-56
2021/08/06 00:07:30;;;;;;;4.30;3.08;;;;;;;17.24;80.14;99709.91;691300;28;1314;-54
2021/08/06 00:07:50;;;;;;;4.80;3.27;;;;;;;17.23;79.61;99720.53;691430;28;1580;-56
2021/08/06 00:08:10;;;;;;;4.47;3.40;;;;;;;17.23;80.03;99712.59;692548;28;1112;-57
2021/08/06 00:08:31;;;;;;;4.63;3.30;;;;;;;17.22;80.39;99714.38;691522;28;1196;-53
2021/08/06 00:08:51;;;;;;;4.83;3.10;;;;;;;17.19;79.99;99717.16;690858;28;1390;-52
2021/08/06 00:09:12;;;;;;;4.70;3.20;;;;;;;17.17;81.26;99709.31;690530;28;1338;-53
2021/08/06 00:09:36;;;;;;;4.10;3.15;;;;;;;17.23;80.69;99718.72;694324;28;1144;-53
2021/08/06 00:09:56;;;;;;;5.47;3.28;;;;;;;17.39;80.49;99718.88;692734;28;4593;-57
2021/08/06 00:10:17;;;;;;;4.40;3.00;;;;;;;17.38;80.21;99721.56;693223;28;1408;-56
2021/08/06 00:10:37;;;;;;;4.53;3.00;;;;;;;17.33;80.28;99713.88;692955;28;1227;-53
2021/08/06 00:10:58;;;;;;;4.90;3.07;;;;;;;17.34;79.73;99708.50;694440;28;1358;-56
2021/08/06 00:11:18;;;;;;;4.70;3.07;;;;;;;17.30;79.78;99720.16;694425;28;1236;-57
2021/08/06 00:11:39;;;;;;;5.45;3.28;;;;;;;17.28;79.73;99715.88;694723;28;1197;-52
2021/08/06 00:11:59;;;;;;;5.28;3.30;;;;;;;17.21;80.90;99711.81;694173;28;1153;-52
2021/08/06 00:12:20;;;;;;;5.03;3.13;;;;;;;17.30;80.08;99714.03;693891;28;1169;-53
2021/08/06 00:12:41;;;;;;;4.65;3.03;;;;;;;17.27;80.50;99717.66;692814;28;4506;-53
2021/08/06 00:13:01;;;;;;;5.07;3.10;;;;;;;17.25;80.44;99716.91;693477;28;1134;-55
2021/08/06 00:13:21;;;;;;;5.33;3.10;;;;;;;17.23;80.22;99721.38;695144;28;1195;-53
2021/08/06 00:13:42;;;;;;;4.53;3.10;;;;;;;17.17;80.84;99714.59;693960;28;1360;-52
2021/08/06 00:14:03;;;;;;;4.70;3.20;;;;;;;17.14;80.79;99720.03;693041;28;3443;-54
2021/08/06 00:14:26;;;;;;;4.50;3.00;;;;;;;17.12;80.73;99711.31;693638;28;3652;-53
2021/08/06 00:14:49;;;;;;;3.83;2.85;;;;;;;17.10;80.36;99717.59;695288;28;2128;-52
2021/08/06 00:15:10;;;;;;;4.65;2.83;;;;;;;17.09;80.01;99721.19;696251;28;1449;-54
2021/08/06 00:15:31;;;;;;;4.30;3.10;;;;;;;17.06;80.83;99713.38;696742;28;1988;-55
2021/08/06 00:15:52;;;;;;;4.73;3.20;;;;;;;17.05;80.35;99714.34;696306;28;4580;-56
2021/08/06 00:16:13;;;;;;;4.45;3.08;;;;;;;17.04;80.39;99715.25;696295;28;1229;-56
2021/08/06 00:16:33;;;;;;;4.00;2.85;;;;;;;17.03;80.80;99714.41;695588;28;1961;-54
2021/08/06 00:16:53;;;;;;;5.07;3.10;;;;;;;17.00;80.69;99712.75;694702;28;1212;-55
2021/08/06 00:17:14;;;;;;;5.27;3.00;;;;;;;16.99;81.15;99711.03;693736;28;1045;-53
2021/08/06 00:17:34;;;;;;;4.70;3.20;;;;;;;16.99;81.28;99716.31;694202;28;1035;-54
2021/08/06 00:17:55;;;;;;;4.88;3.28;;;;;;;16.97;80.99;99715.53;693975;28;1232;-54
2021/08/06 00:18:15;;;;;;;5.10;3.03;;;;;;;16.94;81.95;99712.19;693808;28;1480;-55
2021/08/06 00:18:35;;;;;;;6.72;3.22;;;;;;;16.93;82.17;99713.94;694263;28;3007;-52
2021/08/06 00:18:56;;;;;;;5.20;3.43;;;;;;;16.98;81.74;99708.47;693317;28;4450;-56
2021/08/06 00:19:16;;;;;;;4.40;3.15;;;;;;;16.98;81.98;99714.59;693685;28;1381;-53
2021/08/06 00:19:37;;;;;;;4.63;3.30;;;;;;;16.97;81.50;99712.88;694790;28;1264;-55
2021/08/06 00:19:57;;;;;;;5.30;3.10;;;;;;;16.95;82.19;99709.47;694439;28;1438;-57
2021/08/06 00:20:17;;;;;;;4.63;2.80;;;;;;;17.02;81.31;99712.69;694298;28;1561;-54
2021/08/06 00:20:38;;;;;;;4.60;2.97;;;;;;;17.01;81.22;99713.59;694150;28;1222;-56
2021/08/06 00:20:58;;;;;;;4.28;2.90;;;;;;;17.02;80.89;99716.16;694421;28;1193;-54
2021/08/06 00:21:19;;;;;;;4.03;2.93;;;;;;;17.06;81.12;99716.03;694444;28;1088;-56
2021/08/06 00:21:39;;;;;;;4.50;3.10;;;;;;;17.05;80.50;99716.97;693440;28;4640;-54
2021/08/06 00:22:00;;;;;;;4.83;3.07;;;;;;;17.05;80.70;99711.69;694761;28;1365;-54
2021/08/06 00:22:20;;;;;;;4.80;3.08;;;;;;;17.05;81.44;99711.69;693955;28;1258;-54
2021/08/06 00:22:40;;;;;;;4.57;3.13;;;;;;;17.05;81.79;99709.91;694281;28;1580;-52
2021/08/06 00:23:02;;;;;;;4.65;3.10;;;;;;;17.04;81.21;99702.06;694790;28;2960;-55
2021/08/06 00:23:22;;;;;;;4.68;3.08;;;;;;;17.04;80.78;99712.63;695772;28;3706;-56
2021/08/06 00:23:44;;;;;;;4.20;3.10;;;;;;;17.02;80.95;99704.78;696174;28;1246;-53
2021/08/06 00:24:04;;;;;;;4.78;3.40;;;;;;;16.99;81.01;99711.03;696135;28;1474;-56
2021/08/06 00:24:25;;;;;;;4.80;3.40;;;;;;;16.98;81.81;99706.69;696256;28;1575;-57
2021/08/06 00:24:45;;;;;;;4.57;3.10;;;;;;;16.95;81.44;99712.13;695593;28;4529;-56
2021/08/06 00:25:06;;;;;;;4.18;2.85;;;;;;;16.95;80.74;99706.00;696781;28;1256;-54
2021/08/06 00:25:26;;;;;;;4.60;3.10;;;;;;;16.94;82.00;99707.75;694153;28;1162;-54
2021/08/06 00:25:47;;;;;;;5.57;3.07;;;;;;;16.91;82.35;99699.13;694103;28;1155;-53
2021/08/06 00:26:07;;;;;;;5.47;3.20;;;;;;;16.92;81.99;99706.09;693269;28;1212;-54
2021/08/06 00:26:28;;;;;;;4.55;3.22;;;;;;;16.91;81.77;99702.63;694061;28;1317;-55
2021/08/06 00:26:50;;;;;;;4.60;3.20;;;;;;;16.90;81.81;99705.34;693156;28;1337;-56
2021/08/06 00:27:11;;;;;;;4.63;3.22;;;;;;;16.91;81.39;99704.41;693311;28;1025;-55
2021/08/06 00:27:31;;;;;;;4.30;3.20;;;;;;;16.89;82.95;99703.63;692880;28;3655;-58
2021/08/06 00:27:52;;;;;;;4.20;3.10;;;;;;;16.87;82.80;99701.03;693029;28;4330;-56
2021/08/06 00:28:12;;;;;;;4.50;3.17;;;;;;;16.90;82.72;99706.19;694283;28;1154;-54
2021/08/06 00:28:33;;;;;;;4.40;3.30;;;;;;;16.99;82.80;99710.19;692111;28;1360;-54
2021/08/06 00:28:53;;;;;;;4.78;3.30;;;;;;;16.99;81.95;99711.03;691790;28;2197;-54
2021/08/06 00:29:13;;;;;;;4.53;3.00;;;;;;;16.99;82.23;99707.56;691719;28;1084;-54
2021/08/06 00:29:34;;;;;;;5.25;3.10;;;;;;;17.10;81.21;99699.09;691424;28;1082;-54
2021/08/06 00:29:54;;;;;;;5.50;3.20;;;;;;;17.08;80.52;99703.63;691816;28;1268;-57
2021/08/06 00:30:15;;;;;;;4.70;3.20;;;;;;;17.05;81.98;99706.41;691414;28;1033;-54
2021/08/06 00:30:35;;;;;;;5.17;3.30;;;;;;;17.07;81.82;99707.19;695199;28;1186;-56
2021/08/06 00:30:56;;;;;;;5.00;3.30;;;;;;;17.02;81.92;99704.78;692813;28;4378;-56
2021/08/06 00:31:16;;;;;;;4.53;3.30;;;;;;;16.99;81.68;99697.84;693601;28;1336;-53
2021/08/06 00:31:37;;;;;;;5.47;3.20;;;;;;;17.00;82.03;99701.31;689517;28;1248;-56
2021/08/06 00:31:58;;;;;;;5.13;3.28;;;;;;;17.01;82.25;99703.88;686747;28;3433;-54
2021/08/06 00:32:19;;;;;;;4.47;3.05;;;;;;;16.99;82.31;99711.03;686291;28;1370;-55
2021/08/06 00:32:40;;;;;;;4.55;3.30;;;;;;;16.97;82.54;99702.31;687097;28;1372;-55
2021/08/06 00:33:07;;;;;;;4.70;3.30;;;;;;;16.98;81.95;99706.69;687675;28;1258;-53
2021/08/06 00:33:33;;;;;;;5.75;3.20;;;;;;;17.10;81.99;99707.03;690971;28;1322;-54
2021/08/06 00:33:55;;;;;;;4.78;3.30;;;;;;;17.07;81.17;99704.53;690581;28;4322;-52
2021/08/06 00:34:15;;;;;;;5.50;3.17;;;;;;;17.04;81.30;99709.97;691186;28;1692;-54
2021/08/06 00:34:37;;;;;;;3.90;3.10;;;;;;;17.02;81.25;99707.41;688758;28;1490;-54
2021/08/06 00:35:01;;;;;;;4.25;2.97;;;;;;;16.99;81.37;99705.75;684450;28;1343;-54
2021/08/06 00:35:23;;;;;;;5.53;3.10;;;;;;;16.95;82.14;99712.13;684323;28;1967;-55
2021/08/06 00:35:46;;;;;;;4.75;2.95;;;;;;;16.92;82.40;99698.19;682724;28;1140;-56
2021/08/06 00:36:07;;;;;;;4.68;3.05;;;;;;;16.88;82.10;99700.09;685155;28;1180;-54
2021/08/06 00:36:28;;;;;;;4.47;3.20;;;;;;;16.87;82.80;99711.56;688236;28;3391;-54
2021/08/06 00:36:49;;;;;;;4.53;3.10;;;;;;;16.86;82.04;99707.22;687173;28;4737;-56
2021/08/06 00:37:10;;;;;;;4.63;3.13;;;;;;;16.85;81.70;99708.16;692343;28;1688;-55
2021/08/06 00:37:34;;;;;;;4.50;3.15;;;;;;;16.84;82.51;99699.38;689403;28;1244;-54
2021/08/06 00:37:57;;;;;;;5.45;3.40;;;;;;;16.84;81.81;99702.00;686294;28;1383;-54
2021/08/06 00:38:18;;;;;;;5.00;3.40;;;;;;;16.84;82.72;99706.44;686332;28;1753;-54
2021/08/06 00:38:40;;;;;;;5.10;3.33;;;;;;;16.82;82.34;99701.25;684092;28;1330;-54
2021/08/06 00:39:01;;;;;;;4.60;3.33;;;;;;;16.82;81.47;99695.97;681003;28;3177;-56
2021/08/06 00:39:27;;;;;;;4.05;3.10;;;;;;;16.82;83.03;99695.09;688771;28;1254;-54
2021/08/06 00:39:49;;;;;;;5.15;3.10;;;;;;;16.82;82.93;99700.38;689738;28;4419;-53
2021/08/06 00:40:10;;;;;;;5.57;3.20;;;;;;;16.78;83.58;99701.44;691414;28;1362;-54
2021/08/06 00:40:34;;;;;;;4.40;3.15;;;;;;;16.78;83.21;99696.16;692487;28;1401;-54
2021/08/06 00:40:55;;;;;;;4.63;3.30;;;;;;;16.79;82.96;99697.88;692714;28;3726;-53
2021/08/06 00:41:15;;;;;;;5.30;3.50;;;;;;;16.78;83.61;99696.16;690580;28;1240;-56
2021/08/06 00:41:36;;;;;;;4.75;3.25;;;;;;;16.79;82.89;99701.34;690944;28;1492;-54
2021/08/06 00:41:57;;;;;;;5.10;3.30;;;;;;;16.78;82.84;99699.66;688755;28;1342;-55
2021/08/06 00:42:18;;;;;;;4.90;3.45;;;;;;;16.78;82.88;99688.22;688668;28;1041;-53
2021/08/06 00:42:39;;;;;;;5.13;3.40;;;;;;;16.79;82.64;99698.72;686171;28;4388;-53
2021/08/06 00:43:03;;;;;;;4.93;3.40;;;;;;;16.80;82.66;99700.44;684387;28;1335;-53
2021/08/06 00:43:27;;;;;;;5.53;3.33;;;;;;;16.81;82.77;99703.94;687178;28;3566;-54
2021/08/06 00:43:50;;;;;;;4.95;3.17;;;;;;;16.80;82.62;99700.44;686648;28;3530;-55
2021/08/06 00:44:18;;;;;;;4.70;3.33;;;;;;;16.81;82.17;99696.03;683684;28;1195;-52
2021/08/06 00:44:40;;;;;;;5.03;3.33;;;;;;;16.80;82.58;99694.31;685810;28;1391;-55
2021/08/06 00:45:04;;;;;;;5.03;3.20;;;;;;;16.79;82.34;99698.72;691703;28;1234;-56
2021/08/06 00:45:25;;;;;;;5.05;3.22;;;;;;;16.79;82.68;99695.22;686004;28;2367;-55
2021/08/06 00:45:49;;;;;;;5.80;3.50;;;;;;;16.79;82.76;99696.09;691020;28;4391;-56
2021/08/06 00:46:17;;;;;;;6.18;3.45;;;;;;;16.84;82.94;99694.09;688486;28;1635;-56
2021/08/06 00:46:38;;;;;;;5.15;3.50;;;;;;;16.87;81.87;99694.91;684948;28;3412;-56
2021/08/06 00:46:59;;;;;;;4.80;3.28;;;;;;;16.87;82.08;99692.25;683545;28;1358;-54
2021/08/06 00:47:19;;;;;;;4.80;3.10;;;;;;;16.86;82.57;99699.28;686140;28;1274;-53
2021/08/06 00:47:42;;;;;;;5.80;3.15;;;;;;;16.94;82.52;99701.63;686981;28;1296;-56
2021/08/06 00:48:04;;;;;;;4.72;3.25;;;;;;;16.96;82.22;99698.00;687941;28;2284;-55
2021/08/06 00:48:26;;;;;;;4.10;3.13;;;;;;;16.90;83.22;99698.25;686585;28;1314;-54
2021/08/06 00:48:50;;;;;;;5.65;3.25;;;;;;;16.89;82.11;99693.94;687517;28;4496;-56
2021/08/06 00:49:11;;;;;;;5.28;3.28;;;;;;;16.88;83.07;99692.19;688485;28;1386;-55
2021/08/06 00:49:40;;;;;;;5.28;3.50;;;;;;;16.89;82.24;99690.41;690111;28;1944;-53
2021/08/06 00:50:05;;;;;;;4.43;3.15;;;;;;;16.88;82.25;99691.31;688443;28;1356;-56
2021/08/06 00:50:27;;;;;;;4.68;3.05;;;;;;;16.87;82.21;99687.81;688332;28;1238;-57
2021/08/06 00:50:47;;;;;;;4.80;3.13;;;;;;;16.88;82.47;99696.59;686594;28;3140;-52
2021/08/06 00:51:10;;;;;;;5.00;3.13;;;;;;;16.93;82.79;99689.34;684117;28;1954;-53
2021/08/06 00:51:31;;;;;;;4.88;3.15;;;;;;;16.92;82.31;99692.91;684399;28;1251;-54
2021/08/06 00:51:53;;;;;;;5.03;3.00;;;;;;;16.91;83.14;99686.78;686710;28;4675;-57
2021/08/06 00:52:17;;;;;;;6.10;3.50;;;;;;;17.09;82.16;99692.13;687305;28;1289;-56
2021/08/06 00:52:43;;;;;;;4.70;3.10;;;;;;;17.10;81.95;99696.47;688187;28;1355;-54
2021/08/06 00:53:05;;;;;;;4.85;3.20;;;;;;;17.23;81.39;99696.75;688541;28;1654;-53
2021/08/06 00:53:27;;;;;;;5.68;3.42;;;;;;;17.21;81.57;99695.97;691332;28;1381;-57
2021/08/06 00:53:51;;;;;;;4.45;3.20;;;;;;;17.24;81.43;99694.03;688031;28;1663;-56
2021/08/06 00:54:16;;;;;;;5.55;3.15;;;;;;;17.16;81.95;99693.56;688000;28;1296;-53
2021/08/06 00:54:57;;;;;;;4.82;3.40;;;;;;;17.16;81.07;99690.91;689972;28;4594;-54
2021/08/06 00:55:22;;;;;;;4.45;3.40;;;;;;;17.18;81.28;99695.19;688975;28;3410;-56
2021/08/06 00:55:50;;;;;;;5.13;3.10;;;;;;;17.14;81.29;99693.63;687801;28;1560;-54
2021/08/06 00:56:14;;;;;;;4.60;3.08;;;;;;;17.08;81.81;99693.06;688625;28;1492;-55
2021/08/06 00:56:35;;;;;;;4.22;3.17;;;;;;;17.06;82.20;99694.91;689537;28;1255;-53
2021/08/06 00:56:58;;;;;;;4.43;3.20;;;;;;;17.02;81.28;99694.22;686679;28;1310;-56
2021/08/06 00:57:18;;;;;;;4.53;3.30;;;;;;;17.01;81.56;99692.50;688726;28;1202;-53
2021/08/06 00:57:47;;;;;;;4.97;3.38;;;;;;;17.07;82.02;99692.22;686552;28;4440;-54
2021/08/06 00:58:14;;;;;;;5.13;3.20;;;;;;;17.10;82.16;99694.69;688825;28;3667;-52
2021/08/06 00:58:38;;;;;;;4.50;3.20;;;;;;;17.19;81.69;99693.41;688991;28;1487;-53
2021/08/06 00:59:00;;;;;;;4.10;3.17;;;;;;;17.14;80.81;99691.00;686249;28;1408;-54
2021/08/06 00:59:21;;;;;;;4.03;3.13;;;;;;;17.08;81.69;99693.06;687079;28;1163;-55
2021/08/06 00:59:41;;;;;;;4.63;3.28;;;;;;;17.22;81.55;99692.41;683938;28;1245;-54
2021/08/06 01:00:05;;;;;;;5.50;3.38;;;;;;;17.38;80.38;99695.16;683579;28;1388;-57
2021/08/06 01:00:25;;;;;;;5.20;3.20;;;;;;;17.30;80.07;99696.38;683907;28;1283;-55
2021/08/06 01:00:48;;;;;;;4.80;3.23;;;;;;;17.38;80.63;99696.03;684222;28;4603;-54
2021/08/06 01:01:10;;;;;;;5.47;3.30;;;;;;;17.44;80.67;99689.59;681806;28;1387;-53
2021/08/06 01:01:38;;;;;;;4.53;3.45;;;;;;;17.39;79.93;99689.81;685332;28;1081;-52
2021/08/06 01:02:16;;;;;;;6.57;3.83;;;;;;;17.47;80.28;99692.06;684036;28;1269;-56
2021/08/06 01:02:43;;;;;;;4.45;3.40;;;;;;;17.46;80.32;99693.00;684810;28;3417;-54
2021/08/06 01:03:18;;;;;;;5.15;3.42;;;;;;;17.47;79.73;99686.78;689117;28;1335;-56
2021/08/06 01:03:45;;;;;;;5.03;3.53;;;;;;;17.33;79.98;99690.97;690707;28;4618;-55
2021/08/06 01:04:19;;;;;;;5.25;3.47;;;;;;;17.25;80.60;99693.13;685975;28;1247;-53
2021/08/06 01:05:17;;;;;;;5.43;3.55;;;;;;;17.17;81.02;99690.00;686182;28;1292;-57
2021/08/06 01:05:43;;;;;;;5.95;3.53;;;;;;;17.10;81.37;99686.78;691016;28;1924;-57
2021/08/06 01:06:28;;;;;;;5.78;3.50;;;;;;;17.09;81.54;99686.84;689107;28;2207;-53
2021/08/06 01:07:00;;;;;;;4.95;3.40;;;;;;;17.15;81.69;99682.13;688345;28;4575;-56
2021/08/06 01:07:29;;;;;;;4.60;3.35;;;;;;;17.27;81.26;99688.59;686959;28;1292;-56
2021/08/06 01:08:08;;;;;;;4.97;3.60;;;;;;;17.28;80.63;99687.69;687124;28;1103;-55
2021/08/06 01:08:37;;;;;;;5.00;3.40;;;;;;;17.28;80.82;99684.16;686535;28;1559;-57
2021/08/06 01:08:57;;;;;;;4.57;3.45;;;;;;;17.27;81.30;99688.59;684034;28;1278;-57
2021/08/06 01:09:30;;;;;;;4.38;3.45;;;;;;;17.26;80.89;99686.03;682043;28;1282;-54
2021/08/06 01:09:56;;;;;;;4.60;3.50;;;;;;;17.19;80.59;99691.59;684340;28;4660;-55
2021/08/06 01:10:53;;;;;;;4.88;3.38;;;;;;;17.19;80.51;99685.47;686097;28;1291;-55
2021/08/06 01:11:15;;;;;;;4.80;3.35;;;;;;;17.14;81.16;99687.47;684955;28;1240;-55
2021/08/06 01:11:39;;;;;;;5.95;3.47;;;;;;;17.13;81.44;99686.63;691635;28;2168;-57
2021/08/06 01:12:06;;;;;;;4.93;3.60;;;;;;;17.24;81.11;99682.59;691345;28;1148;-52
2021/08/06 01:12:40;;;;;;;4.65;3.42;;;;;;;17.24;81.09;99688.75;688216;28;1254;-54
2021/08/06 01:13:06;;;;;;;4.80;3.55;;;;;;;17.22;81.24;99679.19;686292;28;4931;-53
2021/08/06 01:13:43;;;;;;;5.30;3.50;;;;;;;17.16;80.81;99675.06;690034;28;1567;-54
2021/08/06 01:14:06;;;;;;;5.35;3.40;;;;;;;17.17;81.61;99687.34;688398;28;1281;-53
2021/08/06 01:14:28;;;;;;;5.47;3.40;;;;;;;17.13;80.94;99685.78;688221;28;1629;-53
2021/08/06 01:14:50;;;;;;;4.47;3.40;;;;;;;17.09;81.66;99678.94;687430;28;2148;-54
2021/08/06 01:15:12;;;;;;;4.72;3.42;;;;;;;17.07;81.85;99686.06;683870;28;1430;-57
2021/08/06 01:15:35;;;;;;;4.60;3.47;;;;;;;17.10;81.86;99680.63;684041;28;1981;-55
2021/08/06 01:16:03;;;;;;;4.38;3.25;;;;;;;17.16;81.37;99690.91;683358;28;4429;-56
2021/08/06 01:16:32;;;;;;;4.35;3.30;;;;;;;17.24;80.44;99688.75;683041;28;1294;-53
2021/08/06 01:17:06;;;;;;;4.40;3.38;;;;;;;17.27;80.16;99688.59;685924;28;3155;-54
2021/08/06 01:17:31;;;;;;;5.22;3.40;;;;;;;17.21;80.79;99681.00;689884;28;3770;-53
2021/08/06 01:17:56;;;;;;;5.90;3.60;;;;;;;17.17;80.53;99687.34;689506;28;1239;-53
2021/08/06 01:18:20;;;;;;;6.38;3.40;;;;;;;17.09;81.69;99685.06;690883;28;1103;-53
2021/08/06 01:18:49;;;;;;;5.60;3.38;;;;;;;17.10;81.31;99684.13;688091;28;4621;-54
2021/08/06 01:19:31;;;;;;;5.10;3.20;;;;;;;17.04;80.97;99688.84;686173;28;1404;-56
2021/08/06 01:20:04;;;;;;;4.60;3.45;;;;;;;16.99;81.85;99684.66;686505;28;3301;-55
2021/08/06 01:20:37;;;;;;;4.20;3.22;;;;;;;17.12;81.65;99678.78;686433;28;1241;-53
2021/08/06 01:21:14;;;;;;;4.57;3.30;;;;;;;17.15;81.21;99674.19;687967;28;1348;-53
2021/08/06 01:21:44;;;;;;;8.05;3.60;;;;;;;17.23;81.29;99684.41;684133;28;1449;-52
2021/08/06 01:22:21;;;;;;;5.13;3.60;;;;;;;17.38;79.84;99681.94;685835;28;4993;-53
2021/08/06 01:22:48;;;;;;;5.35;3.35;;;;;;;17.34;80.56;99678.59;685769;28;3525;-55
2021/08/06 01:23:29;;;;;;;4.88;3.78;;;;;;;17.24;80.70;99685.25;688711;28;1342;-55
2021/08/06 01:23:51;;;;;;;5.50;3.30;;;;;;;17.19;81.33;99680.19;691591;28;1548;-53
2021/08/06 01:24:16;;;;;;;5.65;3.67;;;;;;;17.23;80.80;99679.13;690685;28;1256;-53
2021/08/06 01:24:42;;;;;;;6.38;3.70;;;;;;;17.17;81.31;99677.63;689514;28;4460;-56
2021/08/06 01:25:06;;;;;;;5.38;3.30;;;;;;;17.38;80.51;99679.28;688322;28;1236;-57
2021/08/06 01:25:45;;;;;;;5.03;3.30;;;;;;;17.34;79.91;99673.31;686977;28;1382;-55
2021/08/06 01:26:17;;;;;;;4.90;3.38;;;;;;;17.21;81.79;99675.72;689031;28;1807;-54
2021/08/06 01:26:49;;;;;;;4.38;3.22;;;;;;;17.13;81.14;99676.06;689394;28;2186;-52
2021/08/06 01:27:11;;;;;;;5.15;3.42;;;;;;;17.13;81.59;99676.06;688871;28;3305;-55
2021/08/06 01:27:35;;;;;;;4.55;3.25;;;;;;;17.11;80.82;99672.66;690269;28;1385;-55
2021/08/06 01:27:57;;;;;;;5.28;3.28;;;;;;;17.12;80.91;99678.78;688303;28;4420;-56
2021/08/06 01:28:25;;;;;;;4.70;3.10;;;;;;;17.08;81.23;99675.41;685788;28;1144;-56
2021/08/06 01:28:48;;;;;;;5.28;3.30;;;;;;;17.05;81.09;99672.09;688303;28;1288;-56
2021/08/06 01:29:10;;;;;;;4.93;3.33;;;;;;;17.01;80.99;99661.66;690156;28;1436;-53
2021/08/06 01:29:38;;;;;;;5.10;3.30;;;;;;;17.01;81.31;99669.56;688566;28;1610;-53
2021/08/06 01:30:00;;;;;;;4.93;3.20;;;;;;;17.05;80.96;99674.72;686344;28;3032;-56
2021/08/06 01:30:22;;;;;;;5.10;3.17;;;;;;;17.02;81.48;99660.72;687394;28;3649;-54
2021/08/06 01:30:44;;;;;;;4.70;3.30;;;;;;;17.00;81.53;99667.88;685371;28;4602;-53
2021/08/06 01:31:06;;;;;;;5.30;3.38;;;;;;;17.01;80.99;99666.09;688729;28;1334;-57
2021/08/06 01:31:32;;;;;;;5.22;3.40;;;;;;;16.99;81.37;99667.97;686173;28;1085;-53
2021/08/06 01:32:13;;;;;;;5.82;3.47;;;;;;;16.92;82.23;99667.38;687884;28;1287;-54
2021/08/06 01:32:36;;;;;;;5.93;3.25;;;;;;;16.97;82.48;99667.16;690414;28;1404;-53
2021/08/06 01:32:59;;;;;;;4.60;3.10;;;;;;;17.03;81.14;99661.59;688429;28;4451;-52
2021/08/06 01:33:21;;;;;;;4.82;3.17;;;;;;;17.01;81.12;99672.22;687148;28;1271;-52
2021/08/06 01:33:43;;;;;;;5.68;3.25;;;;;;;17.01;81.49;99666.94;688777;28;4597;-55
2021/08/06 01:34:07;;;;;;;5.22;3.15;;;;;;;16.97;81.81;99673.28;689326;28;1392;-53
2021/08/06 01:34:28;;;;;;;5.75;3.20;;;;;;;16.95;82.03;99671.66;687799;28;1418;-54
2021/08/06 01:34:51;;;;;;;4.87;3.20;;;;;;;17.07;81.29;99664.94;686071;28;1505;-53
2021/08/06 01:35:13;;;;;;;4.68;3.00;;;;;;;17.17;80.55;99663.59;690007;28;1496;-55
2021/08/06 01:35:33;;;;;;;6.57;3.15;;;;;;;17.20;80.60;99660.78;687450;28;1910;-53
2021/08/06 01:35:54;;;;;;;6.45;3.30;;;;;;;17.36;80.28;99666.16;690242;28;1142;-55
2021/08/06 01:36:16;;;;;;;5.07;3.28;;;;;;;17.48;79.77;99660.28;688977;28;1368;-56
2021/08/06 01:36:37;;;;;;;4.97;3.30;;;;;;;17.45;79.48;99664.88;687566;28;1387;-53
2021/08/06 01:36:59;;;;;;;4.13;3.20;;;;;;;17.45;79.51;99659.59;688531;28;4859;-56
2021/08/06 01:37:34;;;;;;;5.20;3.20;;;;;;;17.30;80.28;99656.75;691644;28;3385;-57
2021/08/06 01:37:56;;;;;;;4.55;3.05;;;;;;;17.20;80.70;99668.72;688084;28;1156;-57
2021/08/06 01:38:17;;;;;;;4.90;3.20;;;;;;;17.20;80.66;99655.50;686496;28;1217;-52
2021/08/06 01:38:38;;;;;;;5.68;3.28;;;;;;;17.16;80.64;99661.88;688567;28;1466;-52
2021/08/06 01:38:59;;;;;;;5.32;3.22;;;;;;;17.13;80.51;99662.03;686503;28;3144;-57
2021/08/06 01:39:26;;;;;;;4.28;2.92;;;;;;;17.09;80.45;99660.44;687278;28;1308;-54
2021/08/06 01:39:47;;;;;;;4.47;3.10;;;;;;;17.05;80.52;99659.72;690094;28;4431;-55
2021/08/06 01:40:09;;;;;;;5.20;3.40;;;;;;;17.00;81.32;99665.25;688006;28;3592;-55
2021/08/06 01:41:09;;;;;;;5.82;3.20;;;;;;;16.94;81.04;99662.03;688410;28;1284;-56
2021/08/06 01:41:47;;;;;;;3.97;3.00;;;;;;;16.93;81.42;99663.78;685097;28;1356;-54
2021/08/06 01:42:22;;;;;;;4.13;3.03;;;;;;;16.89;81.06;99656.97;685765;28;1365;-55
2021/08/06 01:43:18;;;;;;;5.65;3.33;;;;;;;16.85;82.26;99655.38;688609;28;4424;-54
2021/08/06 01:43:52;;;;;;;4.85;3.35;;;;;;;17.06;81.25;99663.22;688800;28;1068;-52
2021/08/06 01:44:27;;;;;;;4.80;3.00;;;;;;;17.04;80.78;99658.00;695001;28;1676;-52
2021/08/06 01:44:53;;;;;;;5.47;3.17;;;;;;;17.01;80.70;99661.66;693770;28;2129;-53
2021/08/06 01:45:23;;;;;;;4.60;3.30;;;;;;;16.97;80.91;99662.72;691262;28;1457;-53
2021/08/06 01:45:49;;;;;;;5.18;3.20;;;;;;;16.92;81.61;99662.09;687916;28;4614;-55
2021/08/06 01:46:18;;;;;;;6.15;3.40;;;;;;;16.90;81.61;99658.66;687914;28;1232;-55
2021/08/06 01:47:08;;;;;;;4.60;3.10;;;;;;;16.87;81.71;99658.78;686929;28;1273;-57
2021/08/06 01:47:38;;;;;;;5.05;3.30;;;;;;;16.82;81.82;99659.00;686928;28;1490;-55
2021/08/06 01:48:10;;;;;;;5.20;3.13;;;;;;;16.82;81.25;99658.13;690623;28;1391;-55
2021/08/06 01:48:36;;;;;;;4.57;3.20;;;;;;;16.81;82.28;99653.81;690552;28;1471;-56
2021/08/06 01:49:09;;;;;;;4.68;3.28;;;;;;;16.94;81.62;99662.03;688800;28;5104;-55
2021/08/06 01:49:33;;;;;;;5.55;3.30;;;;;;;16.92;81.38;99655.94;687660;28;1400;-55
2021/08/06 01:50:04;;;;;;;5.43;3.15;;;;;;;16.89;82.07;99658.75;686697;28;1515;-54
2021/08/06 01:50:33;;;;;;;3.97;3.10;;;;;;;16.85;81.74;99658.03;683521;28;1289;-57
2021/08/06 01:50:57;;;;;;;4.70;3.20;;;;;;;16.83;81.49;99654.56;686833;28;1373;-57
2021/08/06 01:51:21;;;;;;;4.87;3.40;;;;;;;16.80;83.17;99657.38;686063;28;1179;-52
2021/08/06 01:51:43;;;;;;;4.55;3.20;;;;;;;16.77;82.59;99652.25;687189;28;4488;-54
2021/08/06 01:52:14;;;;;;;5.43;3.20;;;;;;;16.76;82.12;99653.16;691588;28;1409;-57
2021/08/06 01:52:40;;;;;;;5.10;3.15;;;;;;;16.75;82.05;99656.72;691831;28;1439;-57
2021/08/06 01:53:08;;;;;;;4.82;3.03;;;;;;;16.74;82.02;99657.63;686631;28;1465;-53
2021/08/06 01:53:47;;;;;;;4.70;3.20;;;;;;;16.75;82.02;99654.06;685101;28;3698;-53
2021/08/06 01:54:12;;;;;;;5.32;3.10;;;;;;;16.72;82.56;99654.22;687741;28;1429;-53
2021/08/06 01:54:33;;;;;;;6.18;3.10;;;;;;;16.72;82.34;99651.59;684557;28;1410;-54
2021/08/06 01:54:59;;;;;;;5.00;3.22;;;;;;;16.73;82.47;99653.31;683045;28;4440;-56
2021/08/06 01:55:33;;;;;;;4.22;3.20;;;;;;;16.80;82.12;99647.66;683838;28;1923;-57
2021/08/06 01:55:58;;;;;;;4.88;3.13;;;;;;;16.79;81.88;99642.44;684083;28;1244;-56
2021/08/06 01:56:24;;;;;;;4.40;3.00;;;;;;;16.80;81.55;99654.72;687115;28;1438;-55
2021/08/06 01:56:49;;;;;;;4.60;3.10;;;;;;;16.80;81.76;99649.44;687287;28;1302;-53
2021/08/06 01:57:13;;;;;;;5.15;3.28;;;;;;;16.79;82.23;99650.38;688244;28;1350;-52
2021/08/06 01:57:36;;;;;;;4.75;3.17;;;;;;;16.75;82.28;99648.78;686074;28;1255;-54
2021/08/06 01:58:02;;;;;;;4.47;3.20;;;;;;;16.74;82.24;99655.88;687478;28;4967;-54
2021/08/06 01:58:31;;;;;;;4.22;3.08;;;;;;;16.69;82.96;99645.50;688497;28;1814;-52
2021/08/06 01:58:59;;;;;;;5.10;3.33;;;;;;;16.71;82.60;99647.22;689327;28;1407;-56